Startpagina
METAR-TAF:

METAR-TAF

Vliegvelden :

Flughafen Engadin

Sankt Moritz, Zwitserland

breedte: 46-32-03N, lengte: 9-53-03E, hoogte: 1707 m

Actueel weer

Dit bericht is 33 minuten geleden gemaakt, om 23:50 UTC
Wind 3 kt uit variabele richting
Temperatuur -14°C
Vochtigheid 85%
Druk 1023 hPa
Zicht 10 km of meer
geen wolken onder 1500 m en geen cumulonimbus

METAR: LSZS 052350Z AUTO VRB03KT CAVOK M14/M16 Q1023

Tijdstip: 01:23 (00:23 UTC)

Verwachting

Dit bericht is 9 uur en het 58 minuten geleden gemaakt, om 14:25 UTC
Verwachting geldig van 05 om 15 UTC tot 05 om 24 UTC
Wind 2 kt uit variabele richting
Zicht 10 km of meer
geen wolken onder 1500 m en geen cumulonimbus

TAF: LSZS 051425Z 0515/0524 VRB02KT CAVOK TXM03/0515Z

Waarnemingen en weersverwachtingen van meer dan 4000 vliegvelden (METAR en TAF).

De beschikbare stations zijn de gele en rode punten op de kaart.

Ga met uw muis naar het station om de naam te zien.

Klik dan om waarnemingen en weersverwachtingen te zien.

kaart wijzigen: klik op de groene knoppen met een zwart kruis om in te zoomen, op de groene knop met een streepje om uit te zoomen of op de groene pijlen voor aangrenzende kaarten.


METAR-TAF: